createdAt,value
2022-12-19T00:00:14.749Z,549.07
2022-12-19T00:01:26.856Z,537.65
2022-12-19T00:02:32.733Z,534.97
2022-12-19T00:03:39.463Z,525.49
2022-12-19T00:04:42.853Z,521.06
2022-12-19T00:05:48.876Z,526.06
2022-12-19T00:06:52.165Z,519.10
2022-12-19T00:07:59.034Z,519.70
2022-12-19T00:09:06.853Z,520.77
2022-12-19T00:10:13.534Z,526.34
2022-12-19T00:11:18.952Z,539.66
2022-12-19T00:12:24.804Z,534.20
2022-12-19T00:13:35.288Z,513.05
2022-12-19T00:14:50.735Z,518.84
2022-12-19T00:15:54.545Z,531.79
2022-12-19T00:17:00.431Z,530.28
2022-12-19T00:18:05.677Z,537.29
2022-12-19T00:19:15.784Z,549.50
2022-12-19T00:20:19.471Z,533.97
2022-12-19T00:21:28.414Z,522.99
2022-12-19T00:22:31.757Z,548.82
2022-12-19T00:23:38.839Z,547.14
2022-12-19T00:24:42.915Z,546.86
2022-12-19T00:25:48.847Z,539.20
2022-12-19T00:26:52.131Z,550.50
2022-12-19T00:27:58.639Z,546.21
2022-12-19T00:29:11.164Z,553.98
2022-12-19T00:30:24.115Z,559.92
2022-12-19T00:31:31.630Z,580.33
2022-12-19T00:32:37.764Z,567.79
2022-12-19T00:33:43.401Z,554.67
2022-12-19T00:34:51.000Z,564.63
2022-12-19T00:35:59.098Z,562.49
2022-12-19T00:37:05.011Z,576.61
2022-12-19T00:38:08.417Z,575.02
2022-12-19T00:39:14.698Z,576.67
2022-12-19T00:40:18.427Z,584.37
2022-12-19T00:41:28.398Z,583.75
2022-12-19T00:42:32.338Z,578.23
2022-12-19T00:43:38.532Z,586.49
2022-12-19T00:44:42.002Z,569.73
2022-12-19T00:45:50.666Z,581.80
2022-12-19T00:46:54.907Z,596.20
2022-12-19T00:48:00.801Z,573.57
2022-12-19T00:49:06.535Z,558.75
2022-12-19T00:50:13.801Z,560.70
2022-12-19T00:51:21.335Z,574.71
2022-12-19T00:52:28.092Z,567.92
2022-12-19T00:53:34.827Z,571.01
2022-12-19T00:54:42.096Z,568.38
2022-12-19T00:55:45.337Z,552.48
2022-12-19T00:56:51.351Z,545.76
2022-12-19T00:57:55.550Z,547.47
2022-12-19T00:59:05.884Z,542.29
2022-12-19T01:00:12.099Z,542.47
2022-12-19T01:01:24.652Z,539.80
2022-12-19T01:02:30.761Z,535.51
2022-12-19T01:03:35.239Z,539.84
2022-12-19T01:04:41.962Z,539.20
2022-12-19T01:05:51.027Z,539.77
2022-12-19T01:07:01.758Z,546.10
2022-12-19T01:08:09.208Z,552.26
2022-12-19T01:09:16.514Z,543.65
2022-12-19T01:10:19.966Z,536.72
2022-12-19T01:11:46.694Z,533.29
2022-12-19T01:12:49.973Z,519.55
2022-12-19T01:13:54.684Z,526.28
2022-12-19T01:15:04.899Z,537.31
2022-12-19T01:16:15.168Z,543.16
2022-12-19T01:17:21.157Z,522.15
2022-12-19T01:18:27.096Z,519.08
2022-12-19T01:19:30.566Z,517.13
2022-12-19T01:20:37.287Z,526.84
2022-12-19T01:21:41.033Z,516.44
2022-12-19T01:22:47.877Z,516.12
2022-12-19T01:23:51.187Z,525.60
2022-12-19T01:24:57.091Z,519.75
2022-12-19T01:26:01.357Z,519.08
2022-12-19T01:27:07.494Z,523.48
2022-12-19T01:28:18.261Z,523.81
2022-12-19T01:29:22.275Z,529.13
2022-12-19T01:30:29.256Z,528.71
2022-12-19T01:31:35.108Z,514.47
2022-12-19T01:32:44.706Z,530.49
2022-12-19T01:33:48.120Z,519.44
2022-12-19T01:34:56.404Z,524.37
2022-12-19T01:36:02.033Z,513.03
2022-12-19T01:37:08.877Z,523.03
2022-12-19T01:38:15.615Z,517.54
2022-12-19T01:39:21.525Z,523.13
2022-12-19T01:40:30.247Z,504.77
2022-12-19T01:41:33.869Z,506.40
2022-12-19T01:42:41.210Z,511.40
2022-12-19T01:44:02.075Z,517.37
2022-12-19T01:45:34.077Z,513.54
2022-12-19T01:46:47.649Z,522.00
2022-12-19T01:48:07.739Z,508.39
2022-12-19T01:49:25.278Z,515.24
2022-12-19T01:50:38.081Z,514.39
2022-12-19T01:51:54.375Z,520.83
2022-12-19T01:53:01.421Z,517.49
2022-12-19T01:54:15.535Z,533.80
2022-12-19T01:55:22.082Z,522.88
2022-12-19T01:56:37.429Z,528.90
2022-12-19T01:57:40.876Z,528.20
2022-12-19T01:58:49.000Z,537.94
2022-12-19T02:00:00.198Z,526.60
2022-12-19T02:01:06.666Z,547.48
2022-12-19T02:02:19.452Z,544.44
2022-12-19T02:03:32.709Z,526.47
2022-12-19T02:04:37.485Z,541.44
2022-12-19T02:05:44.617Z,536.10
2022-12-19T02:06:56.484Z,549.58
2022-12-19T02:08:05.985Z,557.01
2022-12-19T02:09:10.197Z,548.22
2022-12-19T02:10:17.025Z,548.01
2022-12-19T02:11:20.504Z,557.05
2022-12-19T02:12:33.246Z,555.22
2022-12-19T02:13:36.835Z,570.13
2022-12-19T02:14:44.623Z,554.56
2022-12-19T02:16:05.927Z,580.84
2022-12-19T02:17:27.951Z,565.65
2022-12-19T02:18:52.181Z,569.57
2022-12-19T02:20:48.445Z,576.47
2022-12-19T02:22:12.712Z,578.64
2022-12-19T02:24:10.984Z,587.99
2022-12-19T02:26:03.655Z,576.75
2022-12-19T02:28:01.083Z,555.98
2022-12-19T02:29:43.997Z,564.29
2022-12-19T02:31:17.499Z,584.62
2022-12-19T02:32:36.302Z,556.22
2022-12-19T02:33:49.557Z,554.26
2022-12-19T02:35:11.279Z,564.37
2022-12-19T02:36:28.580Z,553.46
2022-12-19T02:37:44.831Z,547.96
2022-12-19T02:39:02.400Z,554.55
2022-12-19T02:40:18.550Z,556.06
2022-12-19T02:41:43.519Z,548.08
2022-12-19T02:43:00.968Z,543.65
2022-12-19T02:44:08.865Z,535.50
2022-12-19T02:45:28.337Z,535.86
2022-12-19T02:46:37.869Z,527.71
2022-12-19T02:47:43.396Z,530.59
2022-12-19T02:48:51.635Z,512.74
2022-12-19T02:49:55.084Z,522.86
2022-12-19T02:51:01.421Z,531.76
2022-12-19T02:52:13.303Z,520.10
2022-12-19T02:53:23.805Z,527.98
2022-12-19T02:54:33.031Z,517.86
2022-12-19T02:55:51.746Z,510.85
2022-12-19T02:57:09.174Z,516.52
2022-12-19T02:58:46.684Z,533.19
2022-12-19T03:00:06.768Z,517.80
2022-12-19T03:01:36.635Z,523.11
2022-12-19T03:03:01.183Z,509.03
2022-12-19T03:04:24.343Z,518.69
2022-12-19T03:05:45.662Z,512.18
2022-12-19T03:07:02.101Z,535.67
2022-12-19T03:08:23.964Z,521.21
2022-12-19T03:09:43.952Z,515.87
2022-12-19T03:11:00.758Z,503.20
2022-12-19T03:12:18.362Z,497.29
2022-12-19T03:13:30.584Z,497.86
2022-12-19T03:14:40.293Z,498.60
2022-12-19T03:15:45.448Z,504.28
2022-12-19T03:16:54.396Z,506.37
2022-12-19T03:18:02.883Z,510.98
2022-12-19T03:19:16.535Z,507.89
2022-12-19T03:20:37.353Z,501.24
2022-12-19T03:21:47.783Z,506.54
2022-12-19T03:22:51.866Z,487.90
2022-12-19T03:24:01.408Z,512.56
2022-12-19T03:25:05.608Z,506.02
2022-12-19T03:26:20.757Z,517.71
2022-12-19T03:27:34.285Z,517.58
2022-12-19T03:28:50.981Z,514.88
2022-12-19T03:30:06.849Z,507.08
2022-12-19T03:31:15.852Z,530.06
2022-12-19T03:32:25.601Z,520.30
2022-12-19T03:33:35.074Z,514.91
2022-12-19T03:34:50.910Z,512.18
2022-12-19T03:36:04.610Z,529.91
2022-12-19T03:37:20.351Z,516.23
2022-12-19T03:38:24.476Z,520.44
2022-12-19T03:39:35.202Z,518.30
2022-12-19T03:40:46.465Z,516.42
2022-12-19T03:42:07.867Z,530.48
2022-12-19T03:43:21.665Z,530.99
2022-12-19T03:44:34.849Z,525.45
2022-12-19T03:45:56.599Z,518.21
2022-12-19T03:47:15.120Z,514.03
2022-12-19T03:48:30.970Z,506.35
2022-12-19T03:49:38.253Z,518.21
2022-12-19T03:51:00.375Z,532.22
2022-12-19T03:52:24.855Z,529.08
2022-12-19T03:53:50.275Z,527.18
2022-12-19T03:55:06.326Z,527.57
2022-12-19T03:56:25.883Z,531.84
2022-12-19T03:57:40.203Z,534.87
2022-12-19T03:58:56.247Z,536.22
2022-12-19T04:00:08.166Z,541.00
2022-12-19T04:01:22.650Z,539.21
2022-12-19T04:02:29.365Z,535.31
2022-12-19T04:03:37.020Z,536.78
2022-12-19T04:04:53.677Z,516.42
2022-12-19T04:06:02.127Z,521.88
2022-12-19T04:07:12.019Z,533.18
2022-12-19T04:08:17.922Z,520.99
2022-12-19T04:09:27.431Z,521.20
2022-12-19T04:10:36.153Z,522.29
2022-12-19T04:11:52.588Z,527.12
2022-12-19T04:13:05.309Z,522.28
2022-12-19T04:14:20.124Z,515.82
2022-12-19T04:15:45.255Z,530.16
2022-12-19T04:16:59.820Z,532.67
2022-12-19T04:18:12.845Z,538.87
2022-12-19T04:19:29.614Z,531.93
2022-12-19T04:20:48.645Z,519.91
2022-12-19T04:22:05.000Z,540.17
2022-12-19T04:23:24.535Z,532.02
2022-12-19T04:24:36.647Z,535.57
2022-12-19T04:25:52.281Z,518.28
2022-12-19T04:27:02.564Z,545.89
2022-12-19T04:28:16.779Z,537.55
2022-12-19T04:29:21.570Z,541.12
2022-12-19T04:30:27.458Z,528.49
2022-12-19T04:31:32.666Z,547.64
2022-12-19T04:32:43.143Z,543.36
2022-12-19T04:33:46.725Z,557.86
2022-12-19T04:34:52.616Z,578.32
2022-12-19T04:35:58.857Z,589.31
2022-12-19T04:37:06.754Z,582.12
2022-12-19T04:38:10.230Z,602.25
2022-12-19T04:39:16.271Z,621.53
2022-12-19T04:40:19.713Z,611.11
2022-12-19T04:41:25.613Z,614.12
2022-12-19T04:42:29.856Z,662.59
2022-12-19T04:43:36.063Z,656.83
2022-12-19T04:44:39.367Z,624.63
2022-12-19T04:45:45.552Z,600.77
2022-12-19T04:46:49.370Z,593.38
2022-12-19T04:47:56.067Z,609.16
2022-12-19T04:48:59.390Z,609.94
2022-12-19T04:50:05.557Z,609.91
2022-12-19T04:51:11.477Z,615.37
2022-12-19T04:52:17.402Z,613.08
2022-12-19T04:53:21.524Z,632.93
2022-12-19T04:54:27.380Z,640.72
2022-12-19T04:55:30.927Z,648.39
2022-12-19T04:56:36.829Z,662.89
2022-12-19T04:57:40.078Z,657.31
2022-12-19T04:58:46.805Z,645.88
2022-12-19T04:59:50.444Z,646.53
2022-12-19T05:00:56.310Z,708.06
2022-12-19T05:02:00.735Z,732.77
2022-12-19T05:03:06.881Z,727.73
2022-12-19T05:04:11.193Z,723.39
2022-12-19T05:05:18.412Z,725.34
2022-12-19T05:06:24.459Z,698.87
2022-12-19T05:07:30.479Z,676.64
2022-12-19T05:08:34.461Z,675.08
2022-12-19T05:09:41.327Z,679.60
2022-12-19T05:10:44.593Z,688.93
2022-12-19T05:11:50.987Z,687.57
2022-12-19T05:12:55.580Z,722.07
2022-12-19T05:14:02.406Z,719.34
2022-12-19T05:15:08.848Z,672.58
2022-12-19T05:16:16.386Z,648.94
2022-12-19T05:17:19.743Z,637.41
2022-12-19T05:18:25.815Z,620.92
2022-12-19T05:19:32.315Z,613.32
2022-12-19T05:20:38.117Z,618.44
2022-12-19T05:21:46.867Z,630.08
2022-12-19T05:22:50.186Z,643.39
2022-12-19T05:23:56.104Z,648.65
2022-12-19T05:24:59.389Z,630.98
2022-12-19T05:26:08.795Z,621.92
2022-12-19T05:27:12.098Z,614.93
2022-12-19T05:28:19.697Z,624.28
2022-12-19T05:29:23.337Z,620.01
2022-12-19T05:30:29.250Z,633.24
2022-12-19T05:31:33.507Z,611.93
2022-12-19T05:32:39.444Z,615.66
2022-12-19T05:33:43.947Z,621.06
2022-12-19T05:34:50.004Z,627.30
2022-12-19T05:35:53.318Z,636.30
2022-12-19T05:37:03.754Z,636.07
2022-12-19T05:38:07.396Z,652.12
2022-12-19T05:39:13.772Z,650.55
2022-12-19T05:40:17.220Z,662.94
2022-12-19T05:41:25.638Z,682.57
2022-12-19T05:42:29.736Z,666.69
2022-12-19T05:43:35.675Z,646.16
2022-12-19T05:44:38.977Z,644.72
2022-12-19T05:45:44.996Z,656.07
2022-12-19T05:46:48.468Z,645.81
2022-12-19T05:47:59.966Z,644.66
2022-12-19T05:49:04.721Z,649.12
2022-12-19T05:50:12.884Z,677.83
2022-12-19T05:51:17.020Z,668.87
2022-12-19T05:52:25.609Z,664.86
2022-12-19T05:53:30.524Z,656.04
2022-12-19T05:54:36.563Z,651.17
2022-12-19T05:55:39.918Z,658.81
2022-12-19T05:56:45.924Z,657.87
2022-12-19T05:57:49.462Z,629.50
2022-12-19T05:58:56.216Z,610.13
2022-12-19T06:00:00.017Z,627.94
2022-12-19T06:01:07.560Z,643.19
2022-12-19T06:02:12.759Z,638.62
2022-12-19T06:03:18.894Z,632.45
2022-12-19T06:04:23.197Z,641.98
2022-12-19T06:05:29.137Z,610.93
2022-12-19T06:06:34.996Z,641.24
2022-12-19T06:07:42.565Z,628.95
2022-12-19T06:08:49.404Z,608.52
2022-12-19T06:09:53.574Z,615.40
2022-12-19T06:11:02.797Z,628.54
2022-12-19T06:12:07.197Z,619.69
2022-12-19T06:13:13.394Z,592.03
2022-12-19T06:14:19.650Z,593.58
2022-12-19T06:15:23.771Z,598.68
2022-12-19T06:16:29.764Z,595.43
2022-12-19T06:17:33.219Z,582.09
2022-12-19T06:18:42.990Z,569.54
2022-12-19T06:19:48.270Z,586.38
2022-12-19T06:21:01.569Z,593.77
2022-12-19T06:22:05.018Z,578.11
2022-12-19T06:23:13.592Z,574.76
2022-12-19T06:24:17.575Z,595.04
2022-12-19T06:25:25.822Z,597.06
2022-12-19T06:26:31.472Z,608.51
2022-12-19T06:27:37.817Z,606.76
2022-12-19T06:28:41.167Z,592.74
2022-12-19T06:29:47.383Z,613.87
2022-12-19T06:30:50.941Z,587.46
2022-12-19T06:31:57.812Z,586.98
2022-12-19T06:33:01.349Z,615.68
2022-12-19T06:34:07.563Z,609.63
2022-12-19T06:35:11.561Z,618.67
2022-12-19T06:36:25.445Z,629.73
2022-12-19T06:37:29.689Z,621.32
2022-12-19T06:38:38.879Z,650.85
2022-12-19T06:39:42.230Z,656.01
2022-12-19T06:41:01.261Z,692.27
2022-12-19T06:42:20.308Z,723.97
2022-12-19T06:43:29.565Z,727.40
2022-12-19T06:44:34.114Z,699.44
2022-12-19T06:45:40.149Z,720.52
2022-12-19T06:46:44.743Z,707.44
2022-12-19T06:47:50.689Z,685.29
2022-12-19T06:48:58.864Z,660.40
2022-12-19T06:50:04.987Z,655.72
2022-12-19T06:51:08.783Z,663.69
2022-12-19T06:52:15.647Z,683.72
2022-12-19T06:53:21.812Z,694.53
2022-12-19T06:54:31.709Z,665.91
2022-12-19T06:55:37.559Z,672.37
2022-12-19T06:56:46.582Z,677.20
2022-12-19T06:57:49.901Z,655.61
2022-12-19T06:58:57.064Z,658.20
2022-12-19T07:00:03.897Z,656.57
2022-12-19T07:01:07.419Z,645.90
2022-12-19T07:02:31.550Z,672.66
2022-12-19T07:03:41.567Z,662.55
2022-12-19T07:04:54.652Z,692.55
2022-12-19T07:05:58.941Z,696.84
2022-12-19T07:07:05.167Z,672.14
2022-12-19T07:08:14.071Z,688.27
2022-12-19T07:09:17.829Z,668.51
2022-12-19T07:10:26.586Z,647.92
2022-12-19T07:11:30.782Z,642.65
2022-12-19T07:12:36.681Z,646.33
2022-12-19T07:13:40.110Z,642.50
2022-12-19T07:14:51.701Z,656.38
2022-12-19T07:16:07.291Z,666.94
2022-12-19T07:17:16.553Z,682.50
2022-12-19T07:18:20.045Z,676.48
2022-12-19T07:19:29.160Z,667.86
2022-12-19T07:20:44.877Z,657.21
2022-12-19T07:21:52.469Z,627.72
2022-12-19T07:22:56.918Z,628.10
2022-12-19T07:24:04.289Z,623.74
2022-12-19T07:25:10.054Z,616.53
2022-12-19T07:26:18.655Z,615.41
2022-12-19T07:27:28.563Z,625.08
2022-12-19T07:28:44.725Z,607.19
2022-12-19T07:29:50.688Z,610.47
2022-12-19T07:30:54.311Z,628.36
2022-12-19T07:32:00.398Z,628.27
2022-12-19T07:33:08.916Z,627.53
2022-12-19T07:34:19.259Z,640.25
2022-12-19T07:35:24.616Z,644.47
2022-12-19T07:36:30.884Z,658.83
2022-12-19T07:37:36.967Z,649.60
2022-12-19T07:38:40.294Z,662.15
2022-12-19T07:39:47.145Z,649.76
2022-12-19T07:40:53.311Z,676.21
2022-12-19T07:42:02.180Z,670.48
2022-12-19T07:43:17.596Z,680.39
2022-12-19T07:44:23.785Z,684.91
2022-12-19T07:45:31.081Z,657.52
2022-12-19T07:46:37.211Z,671.68
2022-12-19T07:47:40.589Z,663.67
2022-12-19T07:48:46.763Z,658.12
2022-12-19T07:49:50.272Z,678.91
2022-12-19T07:50:57.507Z,671.55
2022-12-19T07:52:03.931Z,669.95
2022-12-19T07:53:09.932Z,688.11
2022-12-19T07:54:18.045Z,683.43
2022-12-19T07:55:24.199Z,667.85
2022-12-19T07:56:28.987Z,674.66
2022-12-19T07:57:37.659Z,646.28
2022-12-19T07:58:41.116Z,632.36
2022-12-19T07:59:47.289Z,642.59
2022-12-19T08:00:58.770Z,622.21
2022-12-19T08:02:03.561Z,630.01
2022-12-19T08:03:09.723Z,630.37
2022-12-19T08:04:13.936Z,615.47
2022-12-19T08:05:20.470Z,614.81
2022-12-19T08:06:24.912Z,617.00
2022-12-19T08:07:31.727Z,612.78
2022-12-19T08:08:38.586Z,620.25
2022-12-19T08:09:44.496Z,616.18
2022-12-19T08:10:47.860Z,633.08
2022-12-19T08:11:53.688Z,626.71
2022-12-19T08:13:03.073Z,658.69
2022-12-19T08:14:06.542Z,684.61
2022-12-19T08:15:13.704Z,701.47
2022-12-19T08:16:19.810Z,700.50
2022-12-19T08:17:26.519Z,697.74
2022-12-19T08:18:33.494Z,675.86
2022-12-19T08:19:39.536Z,667.51
2022-12-19T08:20:49.523Z,660.43
2022-12-19T08:21:55.537Z,654.47
2022-12-19T08:23:01.574Z,652.37
2022-12-19T08:24:07.161Z,643.54
2022-12-19T08:25:13.661Z,635.89
2022-12-19T08:26:25.576Z,619.75
2022-12-19T08:27:31.828Z,593.50
2022-12-19T08:28:40.925Z,601.08
2022-12-19T08:29:48.158Z,593.02
2022-12-19T08:30:54.368Z,605.47
2022-12-19T08:32:00.453Z,612.57
2022-12-19T08:33:07.026Z,656.78
2022-12-19T08:34:10.630Z,686.63
2022-12-19T08:35:17.560Z,695.34
2022-12-19T08:36:21.998Z,703.67
2022-12-19T08:37:29.924Z,680.86
2022-12-19T08:38:33.261Z,652.25
2022-12-19T08:39:39.367Z,635.71
2022-12-19T08:40:47.661Z,618.51
2022-12-19T08:41:53.723Z,610.68
2022-12-19T08:42:58.282Z,619.09
2022-12-19T08:44:07.358Z,642.98
2022-12-19T08:45:13.914Z,636.13
2022-12-19T08:46:21.808Z,603.97
2022-12-19T08:47:27.967Z,601.90
2022-12-19T08:48:36.156Z,605.66
2022-12-19T08:49:42.424Z,639.37
2022-12-19T08:50:54.626Z,644.48
2022-12-19T08:52:01.581Z,624.84
2022-12-19T08:53:08.366Z,618.63
2022-12-19T08:54:15.548Z,629.07
2022-12-19T08:55:21.672Z,615.29
2022-12-19T08:56:27.773Z,613.16
2022-12-19T08:57:34.741Z,619.73
2022-12-19T08:58:40.712Z,619.94
2022-12-19T08:59:51.420Z,616.33
2022-12-19T09:01:05.263Z,629.95
2022-12-19T09:02:15.289Z,619.14
2022-12-19T09:03:22.710Z,628.35
2022-12-19T09:06:01.889Z,613.11
2022-12-19T09:06:07.095Z,614.32
2022-12-19T09:07:16.217Z,585.29
2022-12-19T09:08:23.168Z,574.13
2022-12-19T09:09:29.569Z,571.71
2022-12-19T09:10:38.649Z,582.82
2022-12-19T09:11:48.141Z,588.26
2022-12-19T09:12:58.039Z,607.81
2022-12-19T09:14:05.312Z,595.70
2022-12-19T09:15:14.385Z,600.07
2022-12-19T09:16:24.101Z,603.73
2022-12-19T09:17:31.422Z,601.25
2022-12-19T09:18:39.858Z,584.00
2022-12-19T09:19:48.535Z,607.59
2022-12-19T09:20:57.920Z,600.05
2022-12-19T09:22:04.088Z,595.45
2022-12-19T09:23:10.145Z,592.97
2022-12-19T09:24:16.120Z,611.70
2022-12-19T09:25:22.861Z,614.80
2022-12-19T09:26:33.683Z,612.27
2022-12-19T09:28:17.390Z,608.76
2022-12-19T09:29:21.109Z,608.30
2022-12-19T09:30:32.080Z,611.56
2022-12-19T09:31:40.552Z,606.71
2022-12-19T09:32:48.109Z,593.67
2022-12-19T09:33:55.026Z,601.82
2022-12-19T09:35:00.948Z,596.02
2022-12-19T09:36:11.849Z,592.28
2022-12-19T09:37:18.110Z,588.91
2022-12-19T09:38:23.549Z,606.45
2022-12-19T09:39:29.531Z,621.98
2022-12-19T09:40:58.219Z,639.01
2022-12-19T09:42:59.342Z,804.26
2022-12-19T09:44:26.377Z,809.21
2022-12-19T09:45:55.751Z,830.49
2022-12-19T09:47:06.446Z,767.32
2022-12-19T09:48:23.811Z,728.45
2022-12-19T09:49:41.647Z,695.88
2022-12-19T09:51:10.400Z,691.06
2022-12-19T09:52:25.005Z,705.73
2022-12-19T09:53:54.288Z,708.96
2022-12-19T09:55:16.822Z,734.50
2022-12-19T09:56:29.174Z,752.02
2022-12-19T09:57:47.448Z,792.37
2022-12-19T09:59:07.855Z,763.58
2022-12-19T10:00:21.674Z,751.60
2022-12-19T10:01:42.452Z,734.69
2022-12-19T10:02:59.578Z,703.82
2022-12-19T10:04:18.644Z,687.29
2022-12-19T10:06:24.927Z,697.83
2022-12-19T10:07:18.250Z,686.06
2022-12-19T10:08:47.691Z,680.08
2022-12-19T10:12:34.499Z,645.06
2022-12-19T10:12:45.179Z,653.80
2022-12-19T10:13:37.364Z,634.05
2022-12-19T10:15:03.398Z,625.61
2022-12-19T10:16:22.523Z,617.62
2022-12-19T10:18:01.130Z,598.55
2022-12-19T10:19:12.293Z,598.95
2022-12-19T10:20:32.785Z,594.13
2022-12-19T10:22:17.805Z,607.31
2022-12-19T10:24:19.035Z,584.67
2022-12-19T10:25:57.702Z,603.39
2022-12-19T10:27:16.346Z,576.08
2022-12-19T10:28:58.622Z,573.59
2022-12-19T10:30:17.309Z,565.30
2022-12-19T10:31:35.991Z,573.00
2022-12-19T10:33:07.085Z,568.25
2022-12-19T10:34:25.394Z,577.14
2022-12-19T10:35:37.723Z,576.88
2022-12-19T10:38:34.329Z,578.74
2022-12-19T10:40:00.650Z,618.75
2022-12-19T10:41:19.881Z,591.14
2022-12-19T10:42:39.577Z,613.00
2022-12-19T10:44:06.108Z,612.88
2022-12-19T10:45:19.689Z,589.81
2022-12-19T10:46:41.136Z,609.38
2022-12-19T10:47:50.887Z,621.89
2022-12-19T10:48:57.914Z,641.19
2022-12-19T10:50:09.222Z,685.99
2022-12-19T10:51:25.936Z,699.34
2022-12-19T10:52:57.002Z,686.17
2022-12-19T10:54:04.349Z,707.37
2022-12-19T10:55:40.782Z,666.49
2022-12-19T10:56:46.933Z,725.64
2022-12-19T10:57:50.200Z,716.96
2022-12-19T10:58:59.133Z,760.32
2022-12-19T11:00:20.385Z,765.20
2022-12-19T11:01:30.362Z,751.00
2022-12-19T11:02:51.966Z,745.68
2022-12-19T11:04:25.357Z,719.83
2022-12-19T11:05:47.366Z,705.55
2022-12-19T11:07:20.762Z,718.30
2022-12-19T11:08:31.053Z,718.65
2022-12-19T11:09:46.775Z,719.27
2022-12-19T11:13:15.490Z,696.39
2022-12-19T11:17:15.807Z,692.44
2022-12-19T11:18:47.125Z,690.17
2022-12-19T11:20:24.717Z,697.79
2022-12-19T11:27:46.450Z,687.47
2022-12-19T11:28:15.652Z,718.15
2022-12-19T11:29:25.414Z,682.98
2022-12-19T11:29:30.352Z,700.91
2022-12-19T11:29:37.047Z,688.22
2022-12-19T11:30:46.255Z,702.77
2022-12-19T11:30:47.658Z,688.79
2022-12-19T11:31:27.998Z,699.34
2022-12-19T11:31:46.584Z,696.06
2022-12-19T11:32:42.298Z,696.66
2022-12-19T11:33:50.764Z,698.52
2022-12-19T11:35:05.489Z,682.25
2022-12-19T11:36:31.856Z,695.88
2022-12-19T11:37:53.886Z,714.35
2022-12-19T11:39:03.408Z,702.30
2022-12-19T11:40:22.360Z,700.25
2022-12-19T11:41:43.943Z,709.07
2022-12-19T11:43:42.089Z,707.42
2022-12-19T11:44:39.310Z,710.41
2022-12-19T11:46:01.549Z,707.18
2022-12-19T11:47:27.899Z,714.23
2022-12-19T11:48:44.256Z,729.53
2022-12-19T11:50:06.302Z,754.74
2022-12-19T11:51:30.137Z,766.42
2022-12-19T11:53:03.964Z,772.74
2022-12-19T11:54:23.677Z,758.98
2022-12-19T11:55:45.168Z,746.94
2022-12-19T11:56:52.259Z,747.07
2022-12-19T11:57:58.917Z,735.41
2022-12-19T11:59:18.173Z,722.03
2022-12-19T12:00:28.840Z,736.70
2022-12-19T12:02:02.628Z,729.31
2022-12-19T12:03:49.534Z,733.57
2022-12-19T12:05:44.914Z,726.63
2022-12-19T12:06:57.785Z,742.83
2022-12-19T12:10:14.470Z,716.08
2022-12-19T12:13:43.574Z,744.81
2022-12-19T12:22:35.653Z,746.59
2022-12-19T12:22:42.147Z,738.31
2022-12-19T12:26:51.559Z,742.25
2022-12-19T12:30:46.866Z,749.58
2022-12-19T12:31:10.063Z,770.80
2022-12-19T12:31:14.691Z,762.88
2022-12-19T12:31:17.766Z,771.71
2022-12-19T12:31:44.385Z,758.17
2022-12-19T12:31:44.393Z,800.27
2022-12-19T12:32:03.005Z,802.47
2022-12-19T12:32:03.523Z,740.77
2022-12-19T12:35:13.681Z,786.21
2022-12-19T12:35:40.781Z,770.44
2022-12-19T12:39:07.212Z,801.90
2022-12-19T12:41:01.470Z,803.83
2022-12-19T12:42:33.796Z,836.79
2022-12-19T12:44:07.996Z,869.06
2022-12-19T12:45:26.213Z,879.04
2022-12-19T12:46:42.236Z,901.05
2022-12-19T12:47:55.050Z,894.68
2022-12-19T12:49:04.823Z,891.59
2022-12-19T12:50:20.236Z,898.98
2022-12-19T12:51:30.100Z,919.12
2022-12-19T12:52:46.161Z,931.56
2022-12-19T12:54:07.881Z,940.98
2022-12-19T12:55:27.660Z,925.36
2022-12-19T12:56:35.626Z,998.84
2022-12-19T12:57:42.268Z,1006.98
2022-12-19T12:59:24.140Z,953.74
2022-12-19T13:00:33.997Z,947.09
2022-12-19T13:01:41.424Z,926.40
2022-12-19T13:02:53.620Z,947.39
2022-12-19T13:04:05.168Z,940.51
2022-12-19T13:05:39.947Z,945.27
2022-12-19T13:07:30.334Z,946.40
2022-12-19T13:08:50.640Z,963.60
2022-12-19T13:10:20.055Z,954.31
2022-12-19T13:11:56.302Z,964.76
2022-12-19T13:13:14.972Z,956.97
2022-12-19T13:14:51.827Z,984.33
2022-12-19T13:15:57.874Z,976.69
2022-12-19T13:17:05.745Z,979.61
2022-12-19T13:18:42.353Z,1036.79
2022-12-19T13:19:56.891Z,1023.00
2022-12-19T13:21:06.851Z,1034.22
2022-12-19T13:22:42.539Z,1052.46
2022-12-19T13:23:52.550Z,1062.79
2022-12-19T13:25:01.539Z,1077.37
2022-12-19T13:26:26.208Z,1058.24
2022-12-19T13:27:42.825Z,1027.44
2022-12-19T13:28:47.103Z,962.01
2022-12-19T13:30:08.214Z,981.68
2022-12-19T13:31:26.473Z,1003.74
2022-12-19T13:32:58.078Z,1056.15
2022-12-19T13:34:22.377Z,1007.03
2022-12-19T13:37:42.407Z,1032.95
2022-12-19T13:39:59.352Z,989.71
2022-12-19T13:39:59.625Z,948.14
2022-12-19T13:40:37.375Z,941.65
2022-12-19T13:41:58.430Z,964.33
2022-12-19T13:43:33.635Z,1019.03
2022-12-19T13:44:45.404Z,1079.65
2022-12-19T13:45:57.367Z,1050.72
2022-12-19T13:47:03.562Z,1068.61
2022-12-19T13:48:23.898Z,1148.60
2022-12-19T13:49:36.592Z,1198.94
2022-12-19T13:50:43.588Z,1165.88
2022-12-19T13:51:57.225Z,1138.40
2022-12-19T13:53:03.777Z,1118.29
2022-12-19T13:54:29.168Z,1110.17
2022-12-19T13:55:43.032Z,1085.83
2022-12-19T13:56:49.839Z,1058.07
2022-12-19T13:58:00.604Z,1064.57
2022-12-19T13:59:09.025Z,1040.95
2022-12-19T14:00:24.559Z,1080.04
2022-12-19T14:01:32.194Z,1051.69
2022-12-19T14:02:51.850Z,1046.49
2022-12-19T14:04:02.649Z,1056.37
2022-12-19T14:06:14.308Z,1072.07
2022-12-19T14:07:04.301Z,1074.36
2022-12-19T14:08:18.218Z,1055.70
2022-12-19T14:11:28.720Z,1085.91
2022-12-19T14:11:33.971Z,1199.96
2022-12-19T14:13:43.271Z,1225.83
2022-12-19T14:14:33.416Z,1217.72
2022-12-19T14:15:42.571Z,1197.47
2022-12-19T14:16:49.953Z,1188.22
2022-12-19T14:17:56.073Z,1184.62
2022-12-19T14:19:30.189Z,1188.37
2022-12-19T14:22:11.380Z,1158.06
2022-12-19T14:22:20.713Z,1151.78
2022-12-19T14:23:42.889Z,1131.76
2022-12-19T14:25:52.368Z,1151.61
2022-12-19T14:28:23.444Z,1151.22
2022-12-19T14:28:24.713Z,1100.26
2022-12-19T14:30:28.908Z,1150.22
2022-12-19T14:31:20.592Z,1138.30
2022-12-19T14:33:44.566Z,1157.82
2022-12-19T14:34:27.088Z,1169.65
2022-12-19T14:36:06.398Z,1177.24
2022-12-19T14:37:03.533Z,1249.42
2022-12-19T14:39:20.703Z,1289.10
2022-12-19T14:39:44.129Z,1353.63
2022-12-19T14:41:07.387Z,1253.78
2022-12-19T14:43:39.465Z,1214.83
2022-12-19T14:52:11.526Z,1101.16
2022-12-19T14:52:50.878Z,1163.97
2022-12-19T14:53:52.730Z,1241.23
2022-12-19T14:54:01.422Z,1252.12
2022-12-19T14:54:23.043Z,1283.04
2022-12-19T14:54:25.523Z,1264.48
2022-12-19T14:54:37.733Z,1321.27
2022-12-19T14:56:16.054Z,1282.47
2022-12-19T14:57:03.914Z,1265.01
2022-12-19T14:58:53.315Z,1214.44
2022-12-19T14:59:46.362Z,1174.11
2022-12-19T15:01:09.286Z,1162.35
2022-12-19T15:02:30.642Z,1155.84
2022-12-19T15:04:50.555Z,1174.43
2022-12-19T15:05:24.276Z,1161.31
2022-12-19T15:07:07.863Z,1182.78
2022-12-19T15:08:04.457Z,1159.46
2022-12-19T15:10:58.387Z,1173.65
2022-12-19T15:11:05.268Z,1149.24
2022-12-19T15:14:48.564Z,1328.18
2022-12-19T15:14:56.319Z,1395.25
2022-12-19T15:15:46.303Z,1394.81
2022-12-19T15:17:06.162Z,1410.01
2022-12-19T15:18:28.897Z,1443.86
2022-12-19T15:19:35.375Z,1383.12
2022-12-19T15:20:42.131Z,1307.87
2022-12-19T15:21:49.508Z,1250.21
2022-12-19T15:22:55.582Z,1128.80
2022-12-19T15:24:02.526Z,1122.66
2022-12-19T15:25:17.516Z,1229.31
2022-12-19T15:26:49.133Z,1292.79
2022-12-19T15:27:58.330Z,1219.51
2022-12-19T15:29:19.891Z,1248.92